Time;durP1;ratioP1;P1;durP2;ratioP2;P2;SDS_P1;SDS_P2;PMS_P1;PMS_P2;Temp;Humidity;BMP_temperature;BMP_pressure;BME280_temperature;BME280_humidity;BME280_pressure;Samples;Min_cycle;Max_cycle;Signal;HPM_P1;HPM_P2
2022/03/12 00:02:03;;;;;;;10.27;5.63;;;;;;;;;;5097796;28;20036;-76
2022/03/12 00:04:30;;;;;;;9.98;5.25;;;;;;;;;;5090984;28;20499;-76
2022/03/12 00:06:55;;;;;;;9.45;5.25;;;;;;;;;;5105393;28;20035;-76
2022/03/12 00:09:21;;;;;;;10.38;4.70;;;;;;;;;;5104581;27;20557;-75
2022/03/12 00:11:51;;;;;;;10.50;5.25;;;;;;;;;;5090197;28;20047;-75
2022/03/12 00:14:21;;;;;;;8.63;4.18;;;;;;;;;;5089621;28;20463;-76
2022/03/12 00:16:48;;;;;;;10.32;5.00;;;;;;;;;;5089575;28;20596;-75
2022/03/12 00:19:14;;;;;;;9.48;5.05;;;;;;;;;;5080136;28;20105;-76
2022/03/12 00:21:42;;;;;;;9.38;3.47;;;;;;;;;;5089897;28;20739;-76
2022/03/12 00:24:10;;;;;;;5.75;3.15;;;;;;;;;;5087923;28;20105;-76
2022/03/12 00:26:40;;;;;;;6.45;3.65;;;;;;;;;;5089501;28;20175;-76
2022/03/12 00:29:14;;;;;;;6.97;3.95;;;;;;;;;;5090034;28;20060;-76
2022/03/12 00:31:45;;;;;;;9.68;5.45;;;;;;;;;;5088616;28;20040;-76
2022/03/12 00:34:11;;;;;;;6.53;3.65;;;;;;;;;;5102806;27;20042;-75
2022/03/12 00:36:37;;;;;;;7.10;3.67;;;;;;;;;;5101852;27;20047;-76
2022/03/12 00:39:04;;;;;;;9.77;4.63;;;;;;;;;;5089804;28;20034;-76
2022/03/12 00:41:29;;;;;;;4.82;2.90;;;;;;;;;;5088204;28;20516;-76
2022/03/12 00:43:55;;;;;;;6.00;3.35;;;;;;;;;;5107471;28;20531;-76
2022/03/12 00:46:22;;;;;;;5.78;3.35;;;;;;;;;;5108531;28;20416;-76
2022/03/12 00:48:48;;;;;;;7.53;4.18;;;;;;;;;;5100080;28;20042;-76
2022/03/12 00:51:13;;;;;;;5.10;2.60;;;;;;;;;;5109436;28;20027;-76
2022/03/12 00:53:40;;;;;;;5.95;3.10;;;;;;;;;;5109370;28;20080;-75
2022/03/12 00:56:07;;;;;;;6.97;3.38;;;;;;;;;;5103924;28;20544;-75
2022/03/12 00:58:33;;;;;;;7.47;3.53;;;;;;;;;;5106409;28;20130;-76
2022/03/12 01:00:58;;;;;;;5.20;3.33;;;;;;;;;;5109798;27;20127;-76
2022/03/12 01:03:23;;;;;;;7.90;3.85;;;;;;;;;;5107857;28;20065;-76
2022/03/12 01:05:49;;;;;;;8.40;3.75;;;;;;;;;;5109099;28;20034;-76
2022/03/12 01:08:15;;;;;;;7.47;2.80;;;;;;;;;;5111563;27;20361;-76
2022/03/12 01:10:41;;;;;;;6.78;2.75;;;;;;;;;;5113460;27;20031;-76
2022/03/12 01:13:08;;;;;;;2.70;1.83;;;;;;;;;;5104482;28;20047;-76
2022/03/12 01:15:34;;;;;;;3.65;2.33;;;;;;;;;;5096693;28;20397;-76
2022/03/12 01:18:00;;;;;;;5.38;3.35;;;;;;;;;;5108749;27;20036;-76
2022/03/12 01:20:26;;;;;;;4.47;2.45;;;;;;;;;;5109644;28;20468;-76
2022/03/12 01:22:52;;;;;;;6.47;3.60;;;;;;;;;;5107847;27;20035;-76
2022/03/12 01:25:17;;;;;;;5.80;3.20;;;;;;;;;;5110771;27;20055;-75
2022/03/12 01:27:43;;;;;;;6.70;3.22;;;;;;;;;;5105745;28;20462;-76
2022/03/12 01:30:09;;;;;;;4.40;2.60;;;;;;;;;;5108816;27;20035;-75
2022/03/12 01:32:36;;;;;;;5.05;2.75;;;;;;;;;;5107947;28;20027;-76
2022/03/12 01:35:02;;;;;;;5.20;2.80;;;;;;;;;;5103283;27;20039;-75
2022/03/12 01:37:27;;;;;;;4.50;2.50;;;;;;;;;;5093315;28;20043;-76
2022/03/12 01:39:53;;;;;;;3.63;2.42;;;;;;;;;;5107965;28;20097;-75
2022/03/12 01:42:21;;;;;;;5.97;2.88;;;;;;;;;;5102324;27;20051;-75
2022/03/12 01:44:47;;;;;;;3.60;2.38;;;;;;;;;;5107931;28;20024;-75
2022/03/12 01:47:15;;;;;;;4.00;2.50;;;;;;;;;;5107726;28;20439;-75
2022/03/12 01:49:41;;;;;;;3.83;2.05;;;;;;;;;;5108795;28;20063;-75
2022/03/12 01:52:07;;;;;;;4.07;2.50;;;;;;;;;;5097519;27;20068;-76
2022/03/12 01:54:34;;;;;;;4.55;3.13;;;;;;;;;;5102086;28;20050;-76
2022/03/12 01:56:59;;;;;;;5.13;2.88;;;;;;;;;;5107485;27;20462;-75
2022/03/12 01:59:25;;;;;;;5.97;3.47;;;;;;;;;;5108687;28;20055;-76
2022/03/12 02:01:52;;;;;;;4.10;2.55;;;;;;;;;;5108799;28;20042;-76
2022/03/12 02:04:22;;;;;;;5.63;2.70;;;;;;;;;;5108464;27;20067;-76
2022/03/12 02:06:48;;;;;;;4.03;2.65;;;;;;;;;;5103737;27;20039;-76
2022/03/12 02:09:18;;;;;;;4.50;2.70;;;;;;;;;;5109886;27;20092;-75
2022/03/12 02:11:51;;;;;;;3.58;2.50;;;;;;;;;;5108692;28;20076;-75
2022/03/12 02:14:19;;;;;;;6.22;3.58;;;;;;;;;;5095591;28;20102;-75
2022/03/12 02:16:48;;;;;;;6.38;3.47;;;;;;;;;;5105329;27;20043;-76
2022/03/12 02:19:14;;;;;;;7.90;4.07;;;;;;;;;;5099777;28;20487;-75
2022/03/12 02:22:06;;;;;;;6.70;3.60;;;;;;;;;;5098040;28;20122;-76
2022/03/12 02:24:34;;;;;;;6.55;3.75;;;;;;;;;;5084709;28;20036;-76
2022/03/12 02:27:02;;;;;;;6.43;3.42;;;;;;;;;;5087746;28;20116;-75
2022/03/12 02:29:28;;;;;;;7.05;4.00;;;;;;;;;;5087404;28;20031;-76
2022/03/12 02:31:57;;;;;;;7.70;3.28;;;;;;;;;;5108672;27;20023;-75
2022/03/12 02:34:29;;;;;;;7.28;4.03;;;;;;;;;;5107400;28;20118;-75
2022/03/12 02:36:56;;;;;;;5.05;2.90;;;;;;;;;;5105377;27;20112;-76
2022/03/12 02:39:23;;;;;;;5.53;3.22;;;;;;;;;;5105397;27;20058;-75
2022/03/12 02:41:49;;;;;;;8.15;4.18;;;;;;;;;;5101743;28;20409;-75
2022/03/12 02:44:20;;;;;;;6.68;3.55;;;;;;;;;;5103673;28;20038;-75
2022/03/12 02:47:10;;;;;;;6.68;2.97;;;;;;;;;;5103645;28;20040;-76
2022/03/12 02:49:37;;;;;;;6.43;3.30;;;;;;;;;;5100141;28;20050;-75
2022/03/12 02:52:03;;;;;;;7.65;3.95;;;;;;;;;;5105866;27;20027;-75
2022/03/12 02:54:29;;;;;;;7.47;3.90;;;;;;;;;;5106760;27;20074;-76
2022/03/12 02:56:55;;;;;;;6.30;3.50;;;;;;;;;;5106817;27;20057;-75
2022/03/12 02:59:20;;;;;;;7.70;3.50;;;;;;;;;;5100011;28;20074;-76
2022/03/12 03:01:47;;;;;;;6.50;3.92;;;;;;;;;;5101144;28;20044;-76
2022/03/12 03:04:13;;;;;;;6.72;3.80;;;;;;;;;;5086404;27;20036;-76
2022/03/12 03:06:38;;;;;;;7.60;4.00;;;;;;;;;;5074800;28;20039;-76
2022/03/12 03:09:04;;;;;;;5.28;2.53;;;;;;;;;;5084778;28;20048;-75
2022/03/12 03:11:39;;;;;;;4.18;2.40;;;;;;;;;;5086965;28;20055;-76
2022/03/12 03:14:10;;;;;;;6.47;3.00;;;;;;;;;;5083059;28;20084;-75
2022/03/12 03:16:36;;;;;;;6.65;3.35;;;;;;;;;;5104223;28;20031;-76
2022/03/12 03:19:02;;;;;;;9.05;3.35;;;;;;;;;;5107857;28;20584;-77
2022/03/12 03:21:28;;;;;;;5.80;3.20;;;;;;;;;;5111002;28;20027;-75
2022/03/12 03:23:54;;;;;;;8.02;2.83;;;;;;;;;;5101760;27;20073;-75
2022/03/12 03:26:44;;;;;;;5.57;2.83;;;;;;;;;;5106440;28;20027;-76
2022/03/12 03:29:09;;;;;;;6.90;3.10;;;;;;;;;;5106475;28;20035;-75
2022/03/12 03:31:35;;;;;;;7.07;3.67;;;;;;;;;;5104682;28;20032;-75
2022/03/12 03:34:01;;;;;;;4.82;2.95;;;;;;;;;;5090364;28;20032;-76
2022/03/12 03:36:26;;;;;;;6.05;3.30;;;;;;;;;;5104939;28;20040;-75
2022/03/12 03:38:52;;;;;;;6.60;3.40;;;;;;;;;;5109213;27;20118;-75
2022/03/12 03:41:17;;;;;;;7.18;3.45;;;;;;;;;;5108802;27;20033;-75
2022/03/12 03:43:48;;;;;;;6.75;3.38;;;;;;;;;;5100948;28;20110;-76
2022/03/12 03:46:20;;;;;;;7.53;3.33;;;;;;;;;;5111399;27;20075;-76
2022/03/12 03:48:48;;;;;;;8.50;2.65;;;;;;;;;;5113449;27;20754;-75
2022/03/12 03:51:14;;;;;;;5.47;2.30;;;;;;;;;;5100170;27;20083;-76
2022/03/12 03:53:39;;;;;;;3.08;2.00;;;;;;;;;;5114157;27;20077;-75
2022/03/12 03:56:05;;;;;;;6.00;3.15;;;;;;;;;;5088457;28;20182;-75
2022/03/12 03:58:32;;;;;;;5.68;2.33;;;;;;;;;;5088323;28;20288;-75
2022/03/12 04:01:11;;;;;;;6.07;3.00;;;;;;;;;;5090562;28;20032;-75
2022/03/12 04:03:38;;;;;;;3.95;2.40;;;;;;;;;;5090566;28;20047;-76
2022/03/12 04:06:05;;;;;;;5.28;2.78;;;;;;;;;;5090299;28;20031;-76
2022/03/12 04:08:32;;;;;;;4.30;2.38;;;;;;;;;;5089223;28;20093;-75
2022/03/12 04:10:58;;;;;;;5.63;3.15;;;;;;;;;;5072169;28;20032;-75
2022/03/12 04:13:24;;;;;;;5.82;2.33;;;;;;;;;;5089222;28;20034;-76
2022/03/12 04:15:51;;;;;;;4.93;2.90;;;;;;;;;;5090593;28;20025;-76
2022/03/12 04:18:21;;;;;;;5.22;2.53;;;;;;;;;;5088846;28;20043;-75
2022/03/12 04:20:47;;;;;;;4.82;2.53;;;;;;;;;;5089849;28;20103;-75
2022/03/12 04:23:18;;;;;;;4.00;2.70;;;;;;;;;;5087848;28;20117;-76
2022/03/12 04:25:45;;;;;;;4.97;2.63;;;;;;;;;;5070348;28;20059;-76
2022/03/12 04:28:11;;;;;;;6.97;3.10;;;;;;;;;;5067891;28;20767;-75
2022/03/12 04:30:38;;;;;;;4.22;2.90;;;;;;;;;;5070846;28;20101;-75
2022/03/12 04:33:03;;;;;;;6.85;2.75;;;;;;;;;;5089847;28;20545;-76
2022/03/12 04:35:29;;;;;;;5.20;2.90;;;;;;;;;;5088309;28;20031;-75
2022/03/12 04:37:54;;;;;;;6.78;2.70;;;;;;;;;;5085739;28;20135;-75
2022/03/12 04:40:23;;;;;;;4.70;2.92;;;;;;;;;;5085176;28;20044;-75
2022/03/12 04:42:49;;;;;;;5.72;2.65;;;;;;;;;;5080137;28;20047;-76
2022/03/12 04:45:18;;;;;;;6.25;3.40;;;;;;;;;;5093132;28;20036;-75
2022/03/12 04:47:45;;;;;;;4.60;2.40;;;;;;;;;;5090870;28;20054;-75
2022/03/12 04:50:12;;;;;;;6.25;3.22;;;;;;;;;;5088135;28;20028;-75
2022/03/12 04:52:42;;;;;;;8.20;3.40;;;;;;;;;;5093110;28;20088;-75
2022/03/12 04:55:10;;;;;;;5.15;2.50;;;;;;;;;;5086497;28;20089;-76
2022/03/12 04:57:36;;;;;;;4.70;2.38;;;;;;;;;;5087928;28;20059;-75
2022/03/12 05:00:13;;;;;;;4.88;2.70;;;;;;;;;;5089503;28;20073;-75
2022/03/12 05:02:39;;;;;;;6.35;3.13;;;;;;;;;;5088396;28;20028;-75
2022/03/12 05:05:04;;;;;;;5.60;2.78;;;;;;;;;;5090156;28;20035;-75
2022/03/12 05:07:30;;;;;;;6.10;3.00;;;;;;;;;;5087803;28;20032;-75
2022/03/12 05:09:55;;;;;;;5.10;2.88;;;;;;;;;;5089605;28;20032;-76
2022/03/12 05:12:23;;;;;;;9.52;3.20;;;;;;;;;;5088004;28;20040;-76
2022/03/12 05:14:51;;;;;;;4.53;2.58;;;;;;;;;;5089428;28;20105;-75
2022/03/12 05:17:18;;;;;;;5.05;2.30;;;;;;;;;;5087842;28;20042;-76
2022/03/12 05:19:44;;;;;;;5.15;2.70;;;;;;;;;;5084232;28;20425;-75
2022/03/12 05:22:10;;;;;;;7.30;3.95;;;;;;;;;;5084604;28;20209;-75
2022/03/12 05:24:35;;;;;;;8.32;3.33;;;;;;;;;;5071603;28;20564;-75
2022/03/12 05:27:01;;;;;;;11.32;4.07;;;;;;;;;;5080842;27;20048;-75
2022/03/12 05:29:27;;;;;;;6.07;3.42;;;;;;;;;;5088112;28;20068;-75
2022/03/12 05:31:53;;;;;;;8.05;4.20;;;;;;;;;;5108712;27;20040;-75
2022/03/12 05:34:23;;;;;;;5.25;3.10;;;;;;;;;;5115096;27;20116;-75
2022/03/12 05:36:51;;;;;;;9.43;3.97;;;;;;;;;;5099261;27;20036;-76
2022/03/12 05:39:17;;;;;;;12.02;4.32;;;;;;;;;;5083630;28;20138;-75
2022/03/12 05:41:44;;;;;;;9.52;4.60;;;;;;;;;;5103662;28;20054;-75
2022/03/12 05:44:14;;;;;;;7.82;4.10;;;;;;;;;;5107693;28;20096;-75
2022/03/12 05:46:40;;;;;;;8.23;3.97;;;;;;;;;;5110228;27;20133;-75
2022/03/12 05:49:06;;;;;;;8.55;4.10;;;;;;;;;;5108414;28;20047;-76
2022/03/12 05:51:32;;;;;;;7.22;4.03;;;;;;;;;;5109044;28;20054;-76
2022/03/12 05:53:58;;;;;;;8.60;4.45;;;;;;;;;;5106255;27;20043;-75
2022/03/12 05:56:23;;;;;;;8.93;3.42;;;;;;;;;;5103028;27;20435;-75
2022/03/12 05:58:48;;;;;;;9.02;4.00;;;;;;;;;;5108475;27;20047;-76
2022/03/12 06:01:14;;;;;;;8.48;3.05;;;;;;;;;;5108665;27;20128;-76
2022/03/12 06:03:39;;;;;;;9.05;2.75;;;;;;;;;;5108520;27;20073;-76
2022/03/12 06:06:05;;;;;;;7.43;3.90;;;;;;;;;;5108218;28;20058;-75
2022/03/12 06:08:33;;;;;;;7.78;3.85;;;;;;;;;;5107989;27;20024;-75
2022/03/12 06:10:58;;;;;;;6.03;3.05;;;;;;;;;;5098042;28;20133;-75
2022/03/12 06:13:26;;;;;;;5.35;2.58;;;;;;;;;;5092968;27;20050;-76
2022/03/12 06:15:58;;;;;;;5.78;3.00;;;;;;;;;;5088187;28;20036;-75
2022/03/12 06:18:26;;;;;;;6.35;2.42;;;;;;;;;;5087818;28;20153;-76
2022/03/12 06:20:51;;;;;;;9.20;3.10;;;;;;;;;;5088556;28;20032;-75
2022/03/12 06:23:17;;;;;;;8.05;3.70;;;;;;;;;;5088360;28;20039;-75
2022/03/12 06:25:43;;;;;;;9.55;3.80;;;;;;;;;;5085324;28;20052;-76
2022/03/12 06:28:08;;;;;;;6.43;3.45;;;;;;;;;;5067868;28;20043;-75
2022/03/12 06:30:34;;;;;;;7.80;3.85;;;;;;;;;;5086951;28;20039;-76
2022/03/12 06:32:59;;;;;;;8.63;3.75;;;;;;;;;;5084375;27;20122;-74
2022/03/12 06:35:26;;;;;;;8.40;3.75;;;;;;;;;;5084896;28;20040;-74
2022/03/12 06:37:52;;;;;;;6.63;3.35;;;;;;;;;;5087072;28;20089;-75
2022/03/12 06:40:18;;;;;;;4.35;2.05;;;;;;;;;;5106794;27;20039;-75
2022/03/12 06:42:47;;;;;;;9.75;3.53;;;;;;;;;;5102841;27;20043;-74
2022/03/12 06:45:16;;;;;;;8.27;3.70;;;;;;;;;;5106842;27;20039;-75
2022/03/12 06:47:44;;;;;;;6.43;2.80;;;;;;;;;;5104046;27;20031;-74
2022/03/12 06:50:13;;;;;;;4.75;2.13;;;;;;;;;;5102572;28;20372;-74
2022/03/12 06:52:45;;;;;;;3.10;1.65;;;;;;;;;;5102258;27;20043;-74
2022/03/12 06:55:10;;;;;;;4.95;2.78;;;;;;;;;;5099837;27;20188;-75
2022/03/12 06:57:36;;;;;;;4.72;2.63;;;;;;;;;;5103891;27;20122;-75
2022/03/12 07:00:10;;;;;;;6.35;2.90;;;;;;;;;;5105575;27;20047;-75
2022/03/12 07:02:36;;;;;;;9.88;3.63;;;;;;;;;;5106620;28;20038;-75
2022/03/12 07:05:01;;;;;;;4.93;2.88;;;;;;;;;;5096751;27;20044;-75
2022/03/12 07:07:26;;;;;;;6.28;2.85;;;;;;;;;;5095257;28;20032;-75
2022/03/12 07:09:52;;;;;;;8.13;3.55;;;;;;;;;;5086280;28;20037;-75
2022/03/12 07:12:17;;;;;;;4.88;2.50;;;;;;;;;;5089067;28;20044;-75
2022/03/12 07:14:44;;;;;;;6.20;3.42;;;;;;;;;;5110828;27;20070;-75
2022/03/12 07:17:09;;;;;;;7.38;3.20;;;;;;;;;;5105986;27;20068;-74
2022/03/12 07:19:35;;;;;;;9.15;3.30;;;;;;;;;;5106902;27;20044;-75
2022/03/12 07:22:01;;;;;;;4.10;2.42;;;;;;;;;;5106400;27;20516;-75
2022/03/12 07:24:26;;;;;;;5.15;2.97;;;;;;;;;;5106916;27;20697;-75
2022/03/12 07:26:51;;;;;;;6.53;2.92;;;;;;;;;;5108448;27;20050;-74
2022/03/12 07:29:17;;;;;;;10.30;3.30;;;;;;;;;;5106274;28;20491;-75
2022/03/12 07:31:42;;;;;;;7.15;3.03;;;;;;;;;;5106934;28;20205;-76
2022/03/12 07:34:07;;;;;;;7.15;2.45;;;;;;;;;;5106171;28;20040;-76
2022/03/12 07:36:33;;;;;;;5.45;2.08;;;;;;;;;;5109575;28;20040;-76
2022/03/12 07:38:59;;;;;;;7.15;3.03;;;;;;;;;;5110085;27;20377;-76
2022/03/12 07:41:27;;;;;;;4.80;2.22;;;;;;;;;;5110550;27;20027;-75
2022/03/12 07:43:53;;;;;;;4.97;2.85;;;;;;;;;;5106040;27;20040;-76
2022/03/12 07:46:19;;;;;;;6.18;2.38;;;;;;;;;;5104170;28;20042;-75
2022/03/12 07:48:44;;;;;;;7.05;2.60;;;;;;;;;;5107029;28;20023;-76
2022/03/12 07:51:10;;;;;;;7.70;3.15;;;;;;;;;;5099663;27;20590;-76
2022/03/12 07:53:36;;;;;;;8.85;3.30;;;;;;;;;;5109157;27;20130;-75
2022/03/12 07:56:03;;;;;;;6.18;3.15;;;;;;;;;;5087045;28;20036;-75
2022/03/12 07:58:28;;;;;;;9.73;3.15;;;;;;;;;;5086412;28;20040;-74
2022/03/12 08:00:59;;;;;;;8.18;3.38;;;;;;;;;;5087461;28;20031;-74
2022/03/12 08:03:25;;;;;;;7.35;3.00;;;;;;;;;;5090052;28;20043;-74
2022/03/12 08:05:52;;;;;;;7.95;2.97;;;;;;;;;;5086220;28;20071;-75
2022/03/12 08:08:18;;;;;;;7.05;3.00;;;;;;;;;;5084558;28;20025;-75
2022/03/12 08:13:29;;;;;;;4.28;2.58;;;;;;;;;;5082936;28;20594;-76
2022/03/12 08:15:54;;;;;;;6.38;2.92;;;;;;;;;;5086812;28;20036;-76
2022/03/12 08:18:21;;;;;;;6.50;3.17;;;;;;;;;;5088681;28;20123;-76
2022/03/12 08:20:47;;;;;;;7.78;3.47;;;;;;;;;;5070337;28;20028;-75
2022/03/12 08:23:12;;;;;;;9.15;3.80;;;;;;;;;;5090206;28;20036;-75
2022/03/12 08:25:38;;;;;;;7.70;2.72;;;;;;;;;;5084835;28;20134;-76
2022/03/12 08:28:04;;;;;;;7.43;3.20;;;;;;;;;;5086964;28;20053;-76
2022/03/12 08:30:29;;;;;;;5.95;2.72;;;;;;;;;;5089454;28;20078;-76
2022/03/12 08:32:55;;;;;;;4.65;2.00;;;;;;;;;;5080279;28;20067;-75
2022/03/12 08:35:21;;;;;;;7.95;3.10;;;;;;;;;;5084809;28;20101;-76
2022/03/12 08:37:46;;;;;;;8.57;2.53;;;;;;;;;;5085320;28;20054;-75
2022/03/12 08:40:13;;;;;;;5.70;2.60;;;;;;;;;;5079124;28;20036;-76
2022/03/12 08:42:38;;;;;;;7.50;2.72;;;;;;;;;;5084074;28;20130;-76
2022/03/12 08:45:04;;;;;;;6.45;3.17;;;;;;;;;;5079385;28;20116;-76
2022/03/12 08:47:29;;;;;;;8.70;4.07;;;;;;;;;;5082364;28;20040;-76
2022/03/12 08:49:55;;;;;;;5.93;2.75;;;;;;;;;;5083557;28;20090;-75
2022/03/12 08:52:20;;;;;;;5.47;2.78;;;;;;;;;;5080245;28;20044;-77
2022/03/12 08:54:46;;;;;;;5.30;2.63;;;;;;;;;;5081254;28;20236;-76
2022/03/12 08:57:11;;;;;;;6.03;2.80;;;;;;;;;;5087118;28;20043;-75
2022/03/12 08:59:36;;;;;;;7.90;3.15;;;;;;;;;;5085559;28;20044;-75
2022/03/12 09:02:02;;;;;;;6.00;2.30;;;;;;;;;;5086380;28;20036;-75
2022/03/12 09:04:27;;;;;;;8.57;3.67;;;;;;;;;;5080078;28;20040;-75
2022/03/12 09:06:52;;;;;;;7.43;3.05;;;;;;;;;;5084035;28;20036;-76
2022/03/12 09:09:18;;;;;;;4.85;2.22;;;;;;;;;;5088674;28;20078;-72
2022/03/12 09:11:43;;;;;;;8.73;2.78;;;;;;;;;;5082781;28;20043;-76
2022/03/12 09:14:10;;;;;;;5.82;3.20;;;;;;;;;;5088406;28;20485;-74
2022/03/12 09:16:36;;;;;;;7.05;3.03;;;;;;;;;;5078560;28;20043;-71
2022/03/12 09:19:03;;;;;;;8.18;2.50;;;;;;;;;;5085841;27;20040;-71
2022/03/12 09:21:28;;;;;;;4.63;2.58;;;;;;;;;;5086011;27;20766;-71
2022/03/12 09:23:54;;;;;;;5.03;2.45;;;;;;;;;;5075865;28;20482;-71
2022/03/12 09:26:21;;;;;;;7.65;2.30;;;;;;;;;;5079644;28;20028;-71
2022/03/12 09:28:47;;;;;;;5.03;2.30;;;;;;;;;;5086176;28;20055;-71
2022/03/12 09:31:12;;;;;;;3.78;1.90;;;;;;;;;;5086383;28;20036;-71
2022/03/12 09:33:38;;;;;;;4.57;2.03;;;;;;;;;;5094190;27;20043;-73
2022/03/12 09:36:04;;;;;;;3.40;1.98;;;;;;;;;;5104242;27;20038;-73
2022/03/12 09:38:29;;;;;;;6.38;2.70;;;;;;;;;;5092910;28;20024;-73
2022/03/12 09:40:55;;;;;;;3.55;2.22;;;;;;;;;;5092295;28;20039;-74
2022/03/12 09:43:20;;;;;;;5.47;2.60;;;;;;;;;;5104360;28;20036;-74
2022/03/12 09:45:46;;;;;;;9.05;2.55;;;;;;;;;;5041125;28;21113;-74
2022/03/12 09:48:12;;;;;;;6.65;2.65;;;;;;;;;;5021135;27;20089;-73
2022/03/12 09:50:37;;;;;;;6.07;2.88;;;;;;;;;;5046032;27;20032;-73
2022/03/12 09:53:03;;;;;;;11.00;3.38;;;;;;;;;;5044091;28;20671;-73
2022/03/12 09:55:28;;;;;;;5.78;2.17;;;;;;;;;;5029014;28;20040;-74
2022/03/12 09:57:54;;;;;;;5.95;2.30;;;;;;;;;;5060645;27;20043;-74
2022/03/12 10:00:19;;;;;;;6.95;3.30;;;;;;;;;;5051890;27;20053;-73
2022/03/12 10:02:45;;;;;;;5.40;2.17;;;;;;;;;;5049529;27;20437;-73
2022/03/12 10:05:11;;;;;;;12.60;2.08;;;;;;;;;;5061836;27;20034;-74
2022/03/12 10:07:38;;;;;;;5.25;2.03;;;;;;;;;;5047639;27;20945;-74
2022/03/12 10:10:03;;;;;;;5.57;2.25;;;;;;;;;;5046574;28;20513;-74
2022/03/12 10:12:29;;;;;;;7.28;2.95;;;;;;;;;;5048508;27;20058;-74
2022/03/12 10:14:54;;;;;;;6.75;2.40;;;;;;;;;;5041257;28;20067;-73
2022/03/12 10:17:20;;;;;;;4.18;2.10;;;;;;;;;;5045658;28;20031;-74
2022/03/12 10:19:46;;;;;;;5.80;2.53;;;;;;;;;;5047909;27;20610;-74
2022/03/12 10:22:11;;;;;;;7.07;2.65;;;;;;;;;;5048310;28;20048;-74
2022/03/12 10:24:37;;;;;;;6.57;2.60;;;;;;;;;;5048584;27;20472;-74
2022/03/12 10:27:06;;;;;;;5.13;2.70;;;;;;;;;;5039426;27;20565;-73
2022/03/12 10:29:31;;;;;;;6.55;2.50;;;;;;;;;;5024452;28;20039;-73
2022/03/12 10:31:56;;;;;;;6.60;2.95;;;;;;;;;;5026685;28;20073;-73
2022/03/12 10:34:24;;;;;;;5.55;2.50;;;;;;;;;;5013424;28;20487;-73
2022/03/12 10:36:57;;;;;;;4.03;2.13;;;;;;;;;;5033122;28;20169;-74
2022/03/12 10:39:40;;;;;;;6.22;2.50;;;;;;;;;;5030988;28;20046;-74
2022/03/12 10:42:08;;;;;;;6.32;3.13;;;;;;;;;;5038369;28;20992;-74
2022/03/12 10:44:41;;;;;;;6.70;2.53;;;;;;;;;;5049595;28;20623;-73
2022/03/12 10:47:19;;;;;;;;;;;;;;;;;;5076295;28;20052;-73
2022/03/12 10:50:00;;;;;;;5.30;2.70;;;;;;;;;;5080401;28;20346;-73
2022/03/12 10:52:30;;;;;;;6.10;2.80;;;;;;;;;;5088923;28;20044;-73
2022/03/12 10:54:56;;;;;;;6.32;2.72;;;;;;;;;;5091279;28;20100;-73
2022/03/12 10:57:21;;;;;;;9.25;2.65;;;;;;;;;;5097981;28;20043;-73
2022/03/12 10:59:52;;;;;;;5.55;2.15;;;;;;;;;;5111220;27;20101;-73
2022/03/12 11:02:17;;;;;;;6.57;2.70;;;;;;;;;;5114204;27;20046;-73
2022/03/12 11:04:43;;;;;;;9.77;2.40;;;;;;;;;;5112054;27;20048;-73
2022/03/12 11:07:28;;;;;;;5.25;1.77;;;;;;;;;;5110525;28;20105;-73
2022/03/12 11:09:55;;;;;;;6.60;1.95;;;;;;;;;;5109167;28;20409;-73
2022/03/12 11:12:35;;;;;;;7.28;2.42;;;;;;;;;;5107910;28;20444;-73
2022/03/12 11:15:05;;;;;;;8.05;2.05;;;;;;;;;;5108752;27;20031;-72
2022/03/12 11:17:44;;;;;;;6.82;2.03;;;;;;;;;;5105402;28;20903;-73
2022/03/12 11:20:21;;;;;;;10.68;2.30;;;;;;;;;;5104087;28;20040;-73
2022/03/12 11:23:08;;;;;;;3.70;1.67;;;;;;;;;;5103859;28;20075;-73
2022/03/12 11:25:36;;;;;;;5.85;2.28;;;;;;;;;;5085799;28;20091;-69
2022/03/12 11:28:18;;;;;;;3.88;1.60;;;;;;;;;;5100923;28;20458;-73
2022/03/12 11:30:43;;;;;;;7.10;2.30;;;;;;;;;;5103996;28;20385;-73
2022/03/12 11:33:09;;;;;;;2.58;1.45;;;;;;;;;;5108504;28;20576;-73
2022/03/12 11:35:39;;;;;;;6.65;2.10;;;;;;;;;;5111298;28;20054;-72
2022/03/12 11:38:21;;;;;;;4.82;2.08;;;;;;;;;;5110794;28;20127;-73
2022/03/12 11:40:50;;;;;;;1.77;1.07;;;;;;;;;;5110288;27;20131;-73
2022/03/12 11:43:23;;;;;;;8.07;1.70;;;;;;;;;;5106508;28;20032;-73
2022/03/12 11:45:48;;;;;;;4.13;1.30;;;;;;;;;;5107633;28;20130;-72
2022/03/12 11:48:14;;;;;;;5.53;1.70;;;;;;;;;;5109423;27;20118;-73
2022/03/12 11:50:40;;;;;;;6.72;1.92;;;;;;;;;;5104199;27;20031;-72
2022/03/12 11:53:05;;;;;;;8.57;2.03;;;;;;;;;;5103630;28;20050;-72
2022/03/12 11:55:32;;;;;;;7.40;1.90;;;;;;;;;;5109855;27;20047;-73
2022/03/12 11:57:59;;;;;;;5.57;2.30;;;;;;;;;;5110275;27;20055;-72
2022/03/12 12:00:28;;;;;;;5.47;1.25;;;;;;;;;;5110494;27;20031;-73
2022/03/12 12:02:53;;;;;;;7.82;1.50;;;;;;;;;;5106755;27;20073;-72
2022/03/12 12:05:19;;;;;;;8.98;1.63;;;;;;;;;;5109119;28;20031;-72
2022/03/12 12:07:47;;;;;;;4.05;1.27;;;;;;;;;;5109068;27;20067;-73
2022/03/12 12:10:24;;;;;;;6.18;1.50;;;;;;;;;;5107407;28;20043;-73
2022/03/12 12:12:51;;;;;;;5.50;2.03;;;;;;;;;;5108858;27;20057;-74
2022/03/12 12:15:19;;;;;;;6.95;1.20;;;;;;;;;;5115697;27;20043;-73
2022/03/12 12:17:47;;;;;;;4.90;1.60;;;;;;;;;;5107954;27;20024;-73
2022/03/12 12:20:18;;;;;;;6.63;2.10;;;;;;;;;;5110366;28;20031;-74
2022/03/12 12:22:44;;;;;;;6.82;1.45;;;;;;;;;;5109877;27;20126;-73
2022/03/12 12:25:11;;;;;;;6.47;1.55;;;;;;;;;;5082792;28;20534;-73
2022/03/12 12:27:42;;;;;;;7.72;1.35;;;;;;;;;;5093924;28;20080;-74
2022/03/12 12:30:10;;;;;;;7.22;1.63;;;;;;;;;;5106340;27;20039;-73
2022/03/12 12:32:47;;;;;;;6.72;1.40;;;;;;;;;;5104260;28;20080;-73
2022/03/12 12:35:12;;;;;;;6.43;1.40;;;;;;;;;;5106938;28;20040;-73
2022/03/12 12:37:59;;;;;;;5.13;1.23;;;;;;;;;;5108436;27;20054;-74
2022/03/12 12:40:43;;;;;;;4.60;1.42;;;;;;;;;;5108894;27;20071;-73
2022/03/12 12:43:13;;;;;;;5.78;1.88;;;;;;;;;;5089347;28;20032;-74
2022/03/12 12:45:47;;;;;;;5.68;1.52;;;;;;;;;;5102730;27;20046;-74
2022/03/12 12:48:15;;;;;;;7.53;1.92;;;;;;;;;;5108093;28;20043;-73
2022/03/12 12:51:02;;;;;;;8.95;1.52;;;;;;;;;;5107896;27;20099;-73
2022/03/12 12:53:34;;;;;;;8.43;1.45;;;;;;;;;;5107114;28;20035;-74
2022/03/12 12:56:35;;;;;;;7.63;1.77;;;;;;;;;;5106687;28;20028;-73
2022/03/12 12:59:06;;;;;;;4.00;1.45;;;;;;;;;;5102980;28;20528;-73
2022/03/12 13:01:41;;;;;;;11.15;4.97;;;;;;;;;;5107907;27;20032;-74
2022/03/12 13:04:11;;;;;;;5.05;1.60;;;;;;;;;;5104993;27;20130;-73
2022/03/12 13:06:36;;;;;;;6.10;3.53;;;;;;;;;;5104022;27;20067;-73
2022/03/12 13:09:36;;;;;;;11.63;6.50;;;;;;;;;;5103139;27;20059;-74
2022/03/12 13:12:04;;;;;;;8.15;2.85;;;;;;;;;;5098072;28;20657;-73
2022/03/12 13:14:50;;;;;;;6.35;3.00;;;;;;;;;;5107503;28;20122;-73
2022/03/12 13:17:29;;;;;;;10.32;3.50;;;;;;;;;;5086594;28;20035;-73
2022/03/12 13:19:55;;;;;;;5.15;2.60;;;;;;;;;;5086543;28;20193;-74
2022/03/12 13:22:20;;;;;;;7.03;3.88;;;;;;;;;;5088653;28;20487;-75
2022/03/12 13:25:00;;;;;;;6.75;3.17;;;;;;;;;;5072592;28;20044;-74
2022/03/12 13:27:29;;;;;;;6.30;3.15;;;;;;;;;;5080078;28;20040;-74
2022/03/12 13:30:16;;;;;;;5.97;3.92;;;;;;;;;;5084838;28;20028;-73
2022/03/12 13:32:47;;;;;;;5.65;2.00;;;;;;;;;;5075738;28;20032;-73
2022/03/12 13:35:18;;;;;;;2.78;1.58;;;;;;;;;;5080510;28;20118;-73
2022/03/12 13:37:43;;;;;;;9.18;4.00;;;;;;;;;;5066862;28;20506;-73
2022/03/12 13:40:21;;;;;;;8.65;2.50;;;;;;;;;;5083097;28;20043;-73
2022/03/12 13:42:52;;;;;;;10.02;3.03;;;;;;;;;;5075114;28;20119;-73
2022/03/12 13:45:18;;;;;;;8.05;3.17;;;;;;;;;;5067571;28;20131;-73
2022/03/12 13:47:49;;;;;;;4.10;1.10;;;;;;;;;;5079039;28;20024;-73
2022/03/12 13:50:16;;;;;;;4.25;2.83;;;;;;;;;;5089730;28;20008;-73
2022/03/12 13:52:41;;;;;;;4.47;2.50;;;;;;;;;;5095894;27;20042;-73
2022/03/12 13:55:09;;;;;;;6.30;2.40;;;;;;;;;;5099344;28;20039;-73
2022/03/12 13:57:38;;;;;;;7.35;2.97;;;;;;;;;;5103062;27;20063;-73
2022/03/12 14:00:07;;;;;;;7.43;3.20;;;;;;;;;;5101732;27;20086;-73
2022/03/12 14:02:34;;;;;;;8.38;3.38;;;;;;;;;;5097992;28;20398;-73
2022/03/12 14:05:00;;;;;;;8.23;3.33;;;;;;;;;;5098781;28;20032;-73
2022/03/12 14:07:25;;;;;;;3.40;1.55;;;;;;;;;;5105559;28;20043;-73
2022/03/12 14:09:52;;;;;;;3.35;1.52;;;;;;;;;;5103532;27;20032;-73
2022/03/12 14:12:25;;;;;;;3.60;1.60;;;;;;;;;;5102318;27;20466;-73
2022/03/12 14:14:51;;;;;;;2.72;1.42;;;;;;;;;;5097071;27;20027;-73
2022/03/12 14:17:27;;;;;;;6.18;1.20;;;;;;;;;;5107547;28;20039;-74
2022/03/12 14:19:59;;;;;;;3.63;1.70;;;;;;;;;;5104343;28;20039;-73
2022/03/12 14:22:27;;;;;;;7.53;2.00;;;;;;;;;;5102198;27;20524;-73
2022/03/12 14:24:54;;;;;;;4.82;1.73;;;;;;;;;;5101986;27;20909;-73
2022/03/12 14:27:27;;;;;;;5.55;2.30;;;;;;;;;;5101871;27;20524;-73
2022/03/12 14:29:52;;;;;;;5.95;2.20;;;;;;;;;;5098312;27;20058;-73
2022/03/12 14:32:18;;;;;;;3.50;2.00;;;;;;;;;;5105050;28;20051;-73
2022/03/12 14:34:46;;;;;;;6.38;3.17;;;;;;;;;;5106280;27;20036;-73
2022/03/12 14:37:13;;;;;;;4.25;2.15;;;;;;;;;;5106891;27;20039;-73
2022/03/12 14:39:41;;;;;;;4.03;2.13;;;;;;;;;;5104554;27;20115;-73
2022/03/12 14:42:11;;;;;;;6.45;2.95;;;;;;;;;;5096915;27;20043;-73
2022/03/12 14:44:41;;;;;;;9.43;3.35;;;;;;;;;;5092802;28;20028;-73
2022/03/12 14:47:12;;;;;;;6.32;2.72;;;;;;;;;;5086977;28;20113;-73
2022/03/12 14:49:46;;;;;;;10.27;4.05;;;;;;;;;;5098172;27;20552;-73
2022/03/12 14:52:26;;;;;;;14.57;5.30;;;;;;;;;;5098271;27;20062;-73